sensor_id;sensor_type;location;lat;lon;timestamp;P1;durP1;ratioP1;P2;durP2;ratioP2
4290;SDS011;2159;50.906;7.152;2022-11-15T00:00:34;9.50;;;6.40;;
4290;SDS011;2159;50.906;7.152;2022-11-15T00:03:02;12.40;;;6.97;;
4290;SDS011;2159;50.906;7.152;2022-11-15T00:05:33;9.80;;;6.90;;
4290;SDS011;2159;50.906;7.152;2022-11-15T00:08:01;7.97;;;6.30;;
4290;SDS011;2159;50.906;7.152;2022-11-15T00:10:28;8.30;;;6.73;;
4290;SDS011;2159;50.906;7.152;2022-11-15T00:12:56;8.30;;;7.10;;
4290;SDS011;2159;50.906;7.152;2022-11-15T00:15:23;10.17;;;6.63;;
4290;SDS011;2159;50.906;7.152;2022-11-15T00:17:51;9.67;;;6.70;;
4290;SDS011;2159;50.906;7.152;2022-11-15T00:20:18;10.80;;;7.00;;
4290;SDS011;2159;50.906;7.152;2022-11-15T00:22:47;11.10;;;7.27;;
4290;SDS011;2159;50.906;7.152;2022-11-15T00:25:14;11.60;;;6.47;;
4290;SDS011;2159;50.906;7.152;2022-11-15T00:27:42;8.30;;;6.57;;
4290;SDS011;2159;50.906;7.152;2022-11-15T00:30:09;11.17;;;7.53;;
4290;SDS011;2159;50.906;7.152;2022-11-15T00:32:37;8.70;;;6.53;;
4290;SDS011;2159;50.906;7.152;2022-11-15T00:35:05;11.80;;;6.53;;
4290;SDS011;2159;50.906;7.152;2022-11-15T00:37:32;8.40;;;6.90;;
4290;SDS011;2159;50.906;7.152;2022-11-15T00:40:01;11.03;;;6.83;;
4290;SDS011;2159;50.906;7.152;2022-11-15T00:42:28;10.30;;;6.87;;
4290;SDS011;2159;50.906;7.152;2022-11-15T00:44:56;7.30;;;6.03;;
4290;SDS011;2159;50.906;7.152;2022-11-15T00:47:23;10.80;;;6.87;;
4290;SDS011;2159;50.906;7.152;2022-11-15T00:49:51;9.57;;;7.70;;
4290;SDS011;2159;50.906;7.152;2022-11-15T00:52:18;11.23;;;7.13;;
4290;SDS011;2159;50.906;7.152;2022-11-15T00:54:45;9.23;;;7.03;;
4290;SDS011;2159;50.906;7.152;2022-11-15T00:57:14;10.53;;;7.80;;
4290;SDS011;2159;50.906;7.152;2022-11-15T00:59:42;9.63;;;6.73;;
4290;SDS011;2159;50.906;7.152;2022-11-15T01:02:09;11.60;;;7.73;;
4290;SDS011;2159;50.906;7.152;2022-11-15T01:04:37;10.77;;;7.20;;
4290;SDS011;2159;50.906;7.152;2022-11-15T01:07:04;11.60;;;7.87;;
4290;SDS011;2159;50.906;7.152;2022-11-15T01:09:32;10.47;;;7.63;;
4290;SDS011;2159;50.906;7.152;2022-11-15T01:11:59;10.20;;;7.93;;
4290;SDS011;2159;50.906;7.152;2022-11-15T01:14:28;13.53;;;7.50;;
4290;SDS011;2159;50.906;7.152;2022-11-15T01:16:55;10.20;;;7.20;;
4290;SDS011;2159;50.906;7.152;2022-11-15T01:19:23;8.90;;;7.10;;
4290;SDS011;2159;50.906;7.152;2022-11-15T01:21:50;9.80;;;7.30;;
4290;SDS011;2159;50.906;7.152;2022-11-15T01:24:18;11.10;;;7.97;;
4290;SDS011;2159;50.906;7.152;2022-11-15T01:26:45;10.33;;;7.43;;
4290;SDS011;2159;50.906;7.152;2022-11-15T01:29:13;11.77;;;7.20;;
4290;SDS011;2159;50.906;7.152;2022-11-15T01:31:41;11.27;;;7.40;;
4290;SDS011;2159;50.906;7.152;2022-11-15T01:34:09;12.83;;;8.03;;
4290;SDS011;2159;50.906;7.152;2022-11-15T01:36:36;11.80;;;8.13;;
4290;SDS011;2159;50.906;7.152;2022-11-15T01:39:04;13.90;;;7.87;;
4290;SDS011;2159;50.906;7.152;2022-11-15T01:41:31;9.27;;;7.60;;
4290;SDS011;2159;50.906;7.152;2022-11-15T01:46:43;10.80;;;7.70;;
4290;SDS011;2159;50.906;7.152;2022-11-15T01:49:13;11.20;;;7.90;;
4290;SDS011;2159;50.906;7.152;2022-11-15T01:51:41;9.30;;;7.63;;
4290;SDS011;2159;50.906;7.152;2022-11-15T01:54:09;12.83;;;7.90;;
4290;SDS011;2159;50.906;7.152;2022-11-15T01:56:40;11.47;;;7.80;;
4290;SDS011;2159;50.906;7.152;2022-11-15T01:59:10;11.70;;;7.97;;
4290;SDS011;2159;50.906;7.152;2022-11-15T02:01:38;16.43;;;7.87;;
4290;SDS011;2159;50.906;7.152;2022-11-15T02:04:08;11.17;;;8.40;;
4290;SDS011;2159;50.906;7.152;2022-11-15T02:06:37;10.67;;;8.23;;
4290;SDS011;2159;50.906;7.152;2022-11-15T02:09:05;10.43;;;7.90;;
4290;SDS011;2159;50.906;7.152;2022-11-15T02:11:33;11.70;;;7.90;;
4290;SDS011;2159;50.906;7.152;2022-11-15T02:14:00;11.80;;;7.80;;
4290;SDS011;2159;50.906;7.152;2022-11-15T02:16:29;11.97;;;8.00;;
4290;SDS011;2159;50.906;7.152;2022-11-15T02:19:02;9.63;;;7.30;;
4290;SDS011;2159;50.906;7.152;2022-11-15T02:21:36;11.03;;;7.30;;
4290;SDS011;2159;50.906;7.152;2022-11-15T02:29:55;9.73;;;7.00;;
4290;SDS011;2159;50.906;7.152;2022-11-15T02:32:29;10.73;;;6.80;;
4290;SDS011;2159;50.906;7.152;2022-11-15T02:35:00;7.83;;;6.53;;
4290;SDS011;2159;50.906;7.152;2022-11-15T02:37:31;9.27;;;6.87;;
4290;SDS011;2159;50.906;7.152;2022-11-15T02:40:00;9.97;;;7.00;;
4290;SDS011;2159;50.906;7.152;2022-11-15T02:42:30;14.37;;;7.57;;
4290;SDS011;2159;50.906;7.152;2022-11-15T02:45:17;9.17;;;6.80;;
4290;SDS011;2159;50.906;7.152;2022-11-15T02:47:47;9.47;;;7.20;;
4290;SDS011;2159;50.906;7.152;2022-11-15T02:50:17;11.50;;;7.63;;
4290;SDS011;2159;50.906;7.152;2022-11-15T02:52:45;10.10;;;6.70;;
4290;SDS011;2159;50.906;7.152;2022-11-15T02:55:26;9.00;;;7.00;;
4290;SDS011;2159;50.906;7.152;2022-11-15T02:57:57;8.43;;;6.70;;
4290;SDS011;2159;50.906;7.152;2022-11-15T03:00:29;8.70;;;6.50;;
4290;SDS011;2159;50.906;7.152;2022-11-15T03:03:08;9.47;;;6.90;;
4290;SDS011;2159;50.906;7.152;2022-11-15T03:05:40;9.80;;;6.60;;
4290;SDS011;2159;50.906;7.152;2022-11-15T03:08:10;9.43;;;6.20;;
4290;SDS011;2159;50.906;7.152;2022-11-15T03:10:42;12.77;;;7.10;;
4290;SDS011;2159;50.906;7.152;2022-11-15T03:13:20;11.60;;;6.90;;
4290;SDS011;2159;50.906;7.152;2022-11-15T03:15:50;8.10;;;6.00;;
4290;SDS011;2159;50.906;7.152;2022-11-15T03:18:22;13.43;;;6.10;;
4290;SDS011;2159;50.906;7.152;2022-11-15T03:20:50;8.37;;;6.07;;
4290;SDS011;2159;50.906;7.152;2022-11-15T03:23:17;7.70;;;5.77;;
4290;SDS011;2159;50.906;7.152;2022-11-15T03:25:46;8.00;;;6.33;;
4290;SDS011;2159;50.906;7.152;2022-11-15T03:28:16;7.20;;;5.93;;
4290;SDS011;2159;50.906;7.152;2022-11-15T03:30:46;7.40;;;6.37;;
4290;SDS011;2159;50.906;7.152;2022-11-15T03:33:15;7.50;;;6.20;;
4290;SDS011;2159;50.906;7.152;2022-11-15T03:35:44;8.37;;;5.83;;
4290;SDS011;2159;50.906;7.152;2022-11-15T03:38:14;8.10;;;6.50;;
4290;SDS011;2159;50.906;7.152;2022-11-15T03:40:45;7.07;;;6.37;;
4290;SDS011;2159;50.906;7.152;2022-11-15T03:43:15;7.87;;;6.33;;
4290;SDS011;2159;50.906;7.152;2022-11-15T03:45:46;9.10;;;6.70;;
4290;SDS011;2159;50.906;7.152;2022-11-15T03:48:16;7.90;;;6.67;;
4290;SDS011;2159;50.906;7.152;2022-11-15T03:50:47;8.77;;;6.30;;
4290;SDS011;2159;50.906;7.152;2022-11-15T03:53:15;12.17;;;6.77;;
4290;SDS011;2159;50.906;7.152;2022-11-15T03:55:42;11.70;;;6.57;;
4290;SDS011;2159;50.906;7.152;2022-11-15T03:58:10;9.10;;;6.47;;
4290;SDS011;2159;50.906;7.152;2022-11-15T04:00:38;7.43;;;6.67;;
4290;SDS011;2159;50.906;7.152;2022-11-15T04:03:05;9.27;;;6.90;;
4290;SDS011;2159;50.906;7.152;2022-11-15T04:05:34;8.23;;;6.70;;
4290;SDS011;2159;50.906;7.152;2022-11-15T04:08:03;12.07;;;7.10;;
4290;SDS011;2159;50.906;7.152;2022-11-15T04:10:30;6.60;;;6.00;;
4290;SDS011;2159;50.906;7.152;2022-11-15T04:12:57;9.67;;;6.93;;
4290;SDS011;2159;50.906;7.152;2022-11-15T04:15:25;7.50;;;6.70;;
4290;SDS011;2159;50.906;7.152;2022-11-15T04:17:53;8.13;;;7.10;;
4290;SDS011;2159;50.906;7.152;2022-11-15T04:20:21;7.97;;;7.00;;
4290;SDS011;2159;50.906;7.152;2022-11-15T04:23:09;6.70;;;6.00;;
4290;SDS011;2159;50.906;7.152;2022-11-15T04:25:55;7.37;;;6.67;;
4290;SDS011;2159;50.906;7.152;2022-11-15T04:28:23;8.30;;;6.70;;
4290;SDS011;2159;50.906;7.152;2022-11-15T04:30:50;7.20;;;6.50;;
4290;SDS011;2159;50.906;7.152;2022-11-15T04:33:18;8.30;;;6.57;;
4290;SDS011;2159;50.906;7.152;2022-11-15T04:35:46;8.10;;;6.60;;
4290;SDS011;2159;50.906;7.152;2022-11-15T04:38:35;9.67;;;6.10;;
4290;SDS011;2159;50.906;7.152;2022-11-15T04:41:02;6.83;;;6.13;;
4290;SDS011;2159;50.906;7.152;2022-11-15T04:43:29;7.07;;;6.37;;
4290;SDS011;2159;50.906;7.152;2022-11-15T04:45:57;6.57;;;5.97;;
4290;SDS011;2159;50.906;7.152;2022-11-15T04:48:25;7.03;;;6.33;;
4290;SDS011;2159;50.906;7.152;2022-11-15T04:50:52;9.07;;;6.60;;
4290;SDS011;2159;50.906;7.152;2022-11-15T04:53:20;10.23;;;6.30;;
4290;SDS011;2159;50.906;7.152;2022-11-15T04:55:48;8.27;;;6.67;;
4290;SDS011;2159;50.906;7.152;2022-11-15T04:58:16;6.73;;;6.03;;
4290;SDS011;2159;50.906;7.152;2022-11-15T05:00:43;6.43;;;5.70;;
4290;SDS011;2159;50.906;7.152;2022-11-15T05:03:11;9.40;;;6.30;;
4290;SDS011;2159;50.906;7.152;2022-11-15T05:05:56;7.23;;;6.20;;
4290;SDS011;2159;50.906;7.152;2022-11-15T05:08:24;6.93;;;6.10;;
4290;SDS011;2159;50.906;7.152;2022-11-15T05:10:53;8.37;;;5.87;;
4290;SDS011;2159;50.906;7.152;2022-11-15T05:13:20;7.83;;;6.40;;
4290;SDS011;2159;50.906;7.152;2022-11-15T05:15:48;7.20;;;5.73;;
4290;SDS011;2159;50.906;7.152;2022-11-15T05:18:15;6.73;;;6.10;;
4290;SDS011;2159;50.906;7.152;2022-11-15T05:20:48;6.33;;;5.73;;
4290;SDS011;2159;50.906;7.152;2022-11-15T05:23:16;5.93;;;5.33;;
4290;SDS011;2159;50.906;7.152;2022-11-15T05:25:43;5.90;;;5.30;;
4290;SDS011;2159;50.906;7.152;2022-11-15T05:28:12;6.00;;;5.40;;
4290;SDS011;2159;50.906;7.152;2022-11-15T05:30:39;5.97;;;5.37;;
4290;SDS011;2159;50.906;7.152;2022-11-15T05:33:07;5.93;;;5.37;;
4290;SDS011;2159;50.906;7.152;2022-11-15T05:35:35;6.50;;;4.83;;
4290;SDS011;2159;50.906;7.152;2022-11-15T05:38:04;5.20;;;4.70;;
4290;SDS011;2159;50.906;7.152;2022-11-15T05:40:31;6.00;;;5.00;;
4290;SDS011;2159;50.906;7.152;2022-11-15T05:42:59;5.23;;;4.73;;
4290;SDS011;2159;50.906;7.152;2022-11-15T05:45:29;4.67;;;4.27;;
4290;SDS011;2159;50.906;7.152;2022-11-15T05:47:57;6.17;;;4.27;;
4290;SDS011;2159;50.906;7.152;2022-11-15T05:50:25;5.17;;;4.67;;
4290;SDS011;2159;50.906;7.152;2022-11-15T05:52:53;5.07;;;4.10;;
4290;SDS011;2159;50.906;7.152;2022-11-15T05:55:27;4.40;;;4.00;;
4290;SDS011;2159;50.906;7.152;2022-11-15T05:57:54;5.63;;;4.50;;
4290;SDS011;2159;50.906;7.152;2022-11-15T06:00:22;16.73;;;12.30;;
4290;SDS011;2159;50.906;7.152;2022-11-15T06:02:51;9.90;;;6.80;;
4290;SDS011;2159;50.906;7.152;2022-11-15T06:05:18;8.83;;;6.80;;
4290;SDS011;2159;50.906;7.152;2022-11-15T06:07:46;8.03;;;6.87;;
4290;SDS011;2159;50.906;7.152;2022-11-15T06:10:13;9.50;;;6.17;;
4290;SDS011;2159;50.906;7.152;2022-11-15T06:12:40;6.80;;;5.80;;
4290;SDS011;2159;50.906;7.152;2022-11-15T06:15:08;6.57;;;5.83;;
4290;SDS011;2159;50.906;7.152;2022-11-15T06:17:36;6.20;;;5.60;;
4290;SDS011;2159;50.906;7.152;2022-11-15T06:20:05;6.17;;;5.27;;
4290;SDS011;2159;50.906;7.152;2022-11-15T06:22:32;5.47;;;4.97;;
4290;SDS011;2159;50.906;7.152;2022-11-15T06:25:00;6.87;;;4.93;;
4290;SDS011;2159;50.906;7.152;2022-11-15T06:27:30;5.40;;;4.60;;
4290;SDS011;2159;50.906;7.152;2022-11-15T06:29:58;4.50;;;4.10;;
4290;SDS011;2159;50.906;7.152;2022-11-15T06:32:25;5.70;;;5.10;;
4290;SDS011;2159;50.906;7.152;2022-11-15T06:34:53;4.63;;;4.23;;
4290;SDS011;2159;50.906;7.152;2022-11-15T06:37:22;5.73;;;4.50;;
4290;SDS011;2159;50.906;7.152;2022-11-15T06:39:49;5.33;;;4.37;;
4290;SDS011;2159;50.906;7.152;2022-11-15T06:42:16;6.87;;;5.10;;
4290;SDS011;2159;50.906;7.152;2022-11-15T06:44:44;5.73;;;5.07;;
4290;SDS011;2159;50.906;7.152;2022-11-15T06:47:11;5.50;;;4.80;;
4290;SDS011;2159;50.906;7.152;2022-11-15T06:49:39;4.63;;;3.80;;
4290;SDS011;2159;50.906;7.152;2022-11-15T06:52:06;4.23;;;3.70;;
4290;SDS011;2159;50.906;7.152;2022-11-15T06:54:35;4.20;;;3.90;;
4290;SDS011;2159;50.906;7.152;2022-11-15T06:57:03;4.60;;;3.50;;
4290;SDS011;2159;50.906;7.152;2022-11-15T06:59:31;5.90;;;3.57;;
4290;SDS011;2159;50.906;7.152;2022-11-15T07:02:05;3.93;;;3.63;;
4290;SDS011;2159;50.906;7.152;2022-11-15T07:04:33;4.33;;;3.70;;
4290;SDS011;2159;50.906;7.152;2022-11-15T07:07:02;34.43;;;18.67;;
4290;SDS011;2159;50.906;7.152;2022-11-15T07:09:29;26.77;;;15.40;;
4290;SDS011;2159;50.906;7.152;2022-11-15T07:11:58;8.93;;;6.53;;
4290;SDS011;2159;50.906;7.152;2022-11-15T07:14:32;7.13;;;5.90;;
4290;SDS011;2159;50.906;7.152;2022-11-15T07:17:02;5.07;;;3.97;;
4290;SDS011;2159;50.906;7.152;2022-11-15T07:19:30;7.30;;;4.90;;
4290;SDS011;2159;50.906;7.152;2022-11-15T07:21:57;4.93;;;4.13;;
4290;SDS011;2159;50.906;7.152;2022-11-15T07:24:25;5.30;;;3.70;;
4290;SDS011;2159;50.906;7.152;2022-11-15T07:26:53;4.17;;;3.20;;
4290;SDS011;2159;50.906;7.152;2022-11-15T07:29:21;3.30;;;3.00;;
4290;SDS011;2159;50.906;7.152;2022-11-15T07:31:49;4.87;;;3.17;;
4290;SDS011;2159;50.906;7.152;2022-11-15T07:34:16;3.60;;;3.30;;
4290;SDS011;2159;50.906;7.152;2022-11-15T07:36:44;3.10;;;2.90;;
4290;SDS011;2159;50.906;7.152;2022-11-15T07:39:11;5.57;;;3.07;;
4290;SDS011;2159;50.906;7.152;2022-11-15T07:41:40;4.43;;;2.97;;
4290;SDS011;2159;50.906;7.152;2022-11-15T07:44:07;4.17;;;3.20;;
4290;SDS011;2159;50.906;7.152;2022-11-15T07:46:36;3.30;;;3.10;;
4290;SDS011;2159;50.906;7.152;2022-11-15T07:49:04;3.00;;;2.80;;
4290;SDS011;2159;50.906;7.152;2022-11-15T07:51:31;3.87;;;3.57;;
4290;SDS011;2159;50.906;7.152;2022-11-15T07:53:59;3.80;;;3.30;;
4290;SDS011;2159;50.906;7.152;2022-11-15T07:56:26;3.57;;;3.27;;
4290;SDS011;2159;50.906;7.152;2022-11-15T07:58:53;4.30;;;3.33;;
4290;SDS011;2159;50.906;7.152;2022-11-15T08:01:21;2.60;;;2.50;;
4290;SDS011;2159;50.906;7.152;2022-11-15T08:03:50;2.77;;;2.57;;
4290;SDS011;2159;50.906;7.152;2022-11-15T08:06:17;2.67;;;2.47;;
4290;SDS011;2159;50.906;7.152;2022-11-15T08:08:46;2.93;;;2.73;;
4290;SDS011;2159;50.906;7.152;2022-11-15T08:11:13;3.40;;;3.10;;
4290;SDS011;2159;50.906;7.152;2022-11-15T08:13:41;3.10;;;2.90;;
4290;SDS011;2159;50.906;7.152;2022-11-15T08:16:08;3.40;;;3.10;;
4290;SDS011;2159;50.906;7.152;2022-11-15T08:18:38;4.70;;;2.63;;
4290;SDS011;2159;50.906;7.152;2022-11-15T08:21:08;2.20;;;2.10;;
4290;SDS011;2159;50.906;7.152;2022-11-15T08:23:43;2.57;;;2.37;;
4290;SDS011;2159;50.906;7.152;2022-11-15T08:26:10;2.40;;;2.20;;
4290;SDS011;2159;50.906;7.152;2022-11-15T08:28:38;2.30;;;2.20;;
4290;SDS011;2159;50.906;7.152;2022-11-15T08:31:06;6.00;;;2.50;;
4290;SDS011;2159;50.906;7.152;2022-11-15T08:33:35;2.50;;;2.40;;
4290;SDS011;2159;50.906;7.152;2022-11-15T08:36:03;2.40;;;2.20;;
4290;SDS011;2159;50.906;7.152;2022-11-15T08:38:32;2.23;;;2.10;;
4290;SDS011;2159;50.906;7.152;2022-11-15T08:41:00;2.30;;;2.13;;
4290;SDS011;2159;50.906;7.152;2022-11-15T08:43:28;3.57;;;2.07;;
4290;SDS011;2159;50.906;7.152;2022-11-15T08:45:56;2.50;;;2.30;;
4290;SDS011;2159;50.906;7.152;2022-11-15T08:48:24;2.47;;;2.27;;
4290;SDS011;2159;50.906;7.152;2022-11-15T08:50:53;2.20;;;2.10;;
4290;SDS011;2159;50.906;7.152;2022-11-15T08:53:21;2.03;;;1.93;;
4290;SDS011;2159;50.906;7.152;2022-11-15T08:55:50;2.20;;;2.07;;
4290;SDS011;2159;50.906;7.152;2022-11-15T08:58:17;2.27;;;2.10;;
4290;SDS011;2159;50.906;7.152;2022-11-15T09:00:45;2.30;;;1.90;;
4290;SDS011;2159;50.906;7.152;2022-11-15T09:03:12;2.93;;;1.97;;
4290;SDS011;2159;50.906;7.152;2022-11-15T09:05:39;2.40;;;2.20;;
4290;SDS011;2159;50.906;7.152;2022-11-15T09:08:07;2.13;;;2.00;;
4290;SDS011;2159;50.906;7.152;2022-11-15T09:10:56;3.17;;;1.70;;
4290;SDS011;2159;50.906;7.152;2022-11-15T09:13:23;6.50;;;2.17;;
4290;SDS011;2159;50.906;7.152;2022-11-15T09:15:50;2.47;;;2.03;;
4290;SDS011;2159;50.906;7.152;2022-11-15T09:18:18;3.33;;;1.83;;
4290;SDS011;2159;50.906;7.152;2022-11-15T09:20:48;1.97;;;1.87;;
4290;SDS011;2159;50.906;7.152;2022-11-15T09:23:15;2.50;;;1.87;;
4290;SDS011;2159;50.906;7.152;2022-11-15T09:25:43;3.20;;;1.77;;
4290;SDS011;2159;50.906;7.152;2022-11-15T09:28:11;1.83;;;1.73;;
4290;SDS011;2159;50.906;7.152;2022-11-15T09:30:57;3.40;;;1.50;;
4290;SDS011;2159;50.906;7.152;2022-11-15T09:33:25;1.67;;;1.50;;
4290;SDS011;2159;50.906;7.152;2022-11-15T09:35:53;1.70;;;1.60;;
4290;SDS011;2159;50.906;7.152;2022-11-15T09:38:21;3.07;;;1.73;;
4290;SDS011;2159;50.906;7.152;2022-11-15T09:40:51;1.40;;;1.30;;
4290;SDS011;2159;50.906;7.152;2022-11-15T09:43:29;2.03;;;1.63;;
4290;SDS011;2159;50.906;7.152;2022-11-15T09:46:02;1.47;;;1.37;;
4290;SDS011;2159;50.906;7.152;2022-11-15T09:51:18;1.90;;;1.30;;
4290;SDS011;2159;50.906;7.152;2022-11-15T09:53:49;3.43;;;1.43;;
4290;SDS011;2159;50.906;7.152;2022-11-15T09:56:39;1.30;;;1.20;;
4290;SDS011;2159;50.906;7.152;2022-11-15T09:59:23;2.20;;;1.40;;
4290;SDS011;2159;50.906;7.152;2022-11-15T10:01:55;1.80;;;1.47;;
4290;SDS011;2159;50.906;7.152;2022-11-15T10:04:23;5.63;;;1.13;;
4290;SDS011;2159;50.906;7.152;2022-11-15T10:06:54;1.40;;;1.23;;
4290;SDS011;2159;50.906;7.152;2022-11-15T10:09:24;1.30;;;1.20;;
4290;SDS011;2159;50.906;7.152;2022-11-15T10:11:52;1.17;;;1.17;;
4290;SDS011;2159;50.906;7.152;2022-11-15T10:14:21;1.27;;;1.17;;
4290;SDS011;2159;50.906;7.152;2022-11-15T10:17:02;1.47;;;1.20;;
4290;SDS011;2159;50.906;7.152;2022-11-15T10:19:34;2.37;;;1.20;;
4290;SDS011;2159;50.906;7.152;2022-11-15T10:22:05;1.07;;;1.07;;
4290;SDS011;2159;50.906;7.152;2022-11-15T10:24:39;1.47;;;1.20;;
4290;SDS011;2159;50.906;7.152;2022-11-15T10:27:09;1.57;;;1.17;;
4290;SDS011;2159;50.906;7.152;2022-11-15T10:29:43;3.23;;;1.20;;
4290;SDS011;2159;50.906;7.152;2022-11-15T10:32:11;1.13;;;1.13;;
4290;SDS011;2159;50.906;7.152;2022-11-15T10:34:38;1.20;;;1.10;;
4290;SDS011;2159;50.906;7.152;2022-11-15T10:37:06;2.13;;;1.30;;
4290;SDS011;2159;50.906;7.152;2022-11-15T10:39:33;1.70;;;1.33;;
4290;SDS011;2159;50.906;7.152;2022-11-15T10:42:15;1.20;;;1.10;;
4290;SDS011;2159;50.906;7.152;2022-11-15T10:44:44;1.03;;;1.00;;
4290;SDS011;2159;50.906;7.152;2022-11-15T10:47:22;1.10;;;0.90;;
4290;SDS011;2159;50.906;7.152;2022-11-15T10:49:54;1.03;;;1.03;;
4290;SDS011;2159;50.906;7.152;2022-11-15T10:52:22;0.90;;;0.90;;
4290;SDS011;2159;50.906;7.152;2022-11-15T10:54:50;1.63;;;1.10;;
4290;SDS011;2159;50.906;7.152;2022-11-15T10:57:20;2.53;;;1.07;;
4290;SDS011;2159;50.906;7.152;2022-11-15T10:59:49;0.97;;;0.97;;
4290;SDS011;2159;50.906;7.152;2022-11-15T11:02:28;1.57;;;0.97;;
4290;SDS011;2159;50.906;7.152;2022-11-15T11:04:56;2.00;;;1.10;;
4290;SDS011;2159;50.906;7.152;2022-11-15T11:07:24;2.67;;;1.13;;
4290;SDS011;2159;50.906;7.152;2022-11-15T11:09:56;1.00;;;1.00;;
4290;SDS011;2159;50.906;7.152;2022-11-15T11:12:27;0.70;;;0.70;;
4290;SDS011;2159;50.906;7.152;2022-11-15T11:14:56;1.10;;;1.00;;
4290;SDS011;2159;50.906;7.152;2022-11-15T11:17:28;1.53;;;0.83;;
4290;SDS011;2159;50.906;7.152;2022-11-15T11:20:00;0.70;;;0.70;;
4290;SDS011;2159;50.906;7.152;2022-11-15T11:22:30;2.07;;;0.87;;
4290;SDS011;2159;50.906;7.152;2022-11-15T11:25:03;0.80;;;0.80;;
4290;SDS011;2159;50.906;7.152;2022-11-15T11:27:35;0.80;;;0.80;;
4290;SDS011;2159;50.906;7.152;2022-11-15T11:30:08;3.13;;;1.20;;
4290;SDS011;2159;50.906;7.152;2022-11-15T11:32:40;0.90;;;0.90;;
4290;SDS011;2159;50.906;7.152;2022-11-15T11:35:11;2.60;;;1.10;;
4290;SDS011;2159;50.906;7.152;2022-11-15T11:37:43;1.27;;;1.00;;
4290;SDS011;2159;50.906;7.152;2022-11-15T11:40:16;3.07;;;1.10;;
4290;SDS011;2159;50.906;7.152;2022-11-15T11:42:47;1.97;;;0.90;;
4290;SDS011;2159;50.906;7.152;2022-11-15T11:45:22;2.10;;;1.20;;
4290;SDS011;2159;50.906;7.152;2022-11-15T11:47:54;3.03;;;1.53;;
4290;SDS011;2159;50.906;7.152;2022-11-15T11:50:25;1.13;;;1.10;;
4290;SDS011;2159;50.906;7.152;2022-11-15T11:52:56;1.10;;;1.00;;
4290;SDS011;2159;50.906;7.152;2022-11-15T11:55:31;1.37;;;1.00;;
4290;SDS011;2159;50.906;7.152;2022-11-15T11:58:03;5.17;;;0.97;;
4290;SDS011;2159;50.906;7.152;2022-11-15T12:00:33;1.03;;;0.90;;
4290;SDS011;2159;50.906;7.152;2022-11-15T12:03:04;2.37;;;1.00;;
4290;SDS011;2159;50.906;7.152;2022-11-15T12:05:35;1.77;;;0.90;;
4290;SDS011;2159;50.906;7.152;2022-11-15T12:08:06;5.33;;;0.90;;
4290;SDS011;2159;50.906;7.152;2022-11-15T12:10:37;1.23;;;0.90;;
4290;SDS011;2159;50.906;7.152;2022-11-15T12:13:06;0.90;;;0.90;;
4290;SDS011;2159;50.906;7.152;2022-11-15T12:15:39;1.43;;;0.90;;
4290;SDS011;2159;50.906;7.152;2022-11-15T12:18:09;1.87;;;0.90;;
4290;SDS011;2159;50.906;7.152;2022-11-15T12:20:39;3.00;;;1.10;;
4290;SDS011;2159;50.906;7.152;2022-11-15T12:23:08;2.57;;;1.30;;
4290;SDS011;2159;50.906;7.152;2022-11-15T12:25:40;2.73;;;1.17;;
4290;SDS011;2159;50.906;7.152;2022-11-15T12:28:12;1.57;;;1.10;;
4290;SDS011;2159;50.906;7.152;2022-11-15T12:30:44;1.00;;;0.90;;
4290;SDS011;2159;50.906;7.152;2022-11-15T12:35:58;1.40;;;1.27;;
4290;SDS011;2159;50.906;7.152;2022-11-15T12:41:12;3.00;;;2.10;;
4290;SDS011;2159;50.906;7.152;2022-11-15T12:43:40;1.80;;;1.70;;
4290;SDS011;2159;50.906;7.152;2022-11-15T12:46:12;3.30;;;1.80;;
4290;SDS011;2159;50.906;7.152;2022-11-15T12:56:48;2.43;;;1.70;;
4290;SDS011;2159;50.906;7.152;2022-11-15T12:59:50;2.97;;;1.57;;
4290;SDS011;2159;50.906;7.152;2022-11-15T13:02:18;2.40;;;1.50;;
4290;SDS011;2159;50.906;7.152;2022-11-15T13:04:47;2.13;;;1.37;;
4290;SDS011;2159;50.906;7.152;2022-11-15T13:09:57;1.67;;;1.57;;
4290;SDS011;2159;50.906;7.152;2022-11-15T13:17:55;3.70;;;2.10;;
4290;SDS011;2159;50.906;7.152;2022-11-15T13:20:24;2.00;;;1.90;;
4290;SDS011;2159;50.906;7.152;2022-11-15T13:22:58;2.33;;;1.97;;
4290;SDS011;2159;50.906;7.152;2022-11-15T13:25:46;4.70;;;2.07;;
4290;SDS011;2159;50.906;7.152;2022-11-15T13:28:20;3.60;;;2.00;;
4290;SDS011;2159;50.906;7.152;2022-11-15T13:30:49;2.13;;;2.00;;
4290;SDS011;2159;50.906;7.152;2022-11-15T13:33:20;4.30;;;2.03;;
4290;SDS011;2159;50.906;7.152;2022-11-15T13:35:48;6.73;;;2.83;;
4290;SDS011;2159;50.906;7.152;2022-11-15T13:38:18;2.57;;;2.33;;
4290;SDS011;2159;50.906;7.152;2022-11-15T13:40:46;2.40;;;2.20;;
4290;SDS011;2159;50.906;7.152;2022-11-15T13:43:17;2.80;;;2.30;;
4290;SDS011;2159;50.906;7.152;2022-11-15T13:46:03;6.03;;;2.20;;
4290;SDS011;2159;50.906;7.152;2022-11-15T13:48:32;1.97;;;1.77;;
4290;SDS011;2159;50.906;7.152;2022-11-15T13:51:00;2.37;;;2.17;;
4290;SDS011;2159;50.906;7.152;2022-11-15T13:53:29;4.57;;;2.33;;
4290;SDS011;2159;50.906;7.152;2022-11-15T13:55:57;2.47;;;2.27;;
4290;SDS011;2159;50.906;7.152;2022-11-15T13:58:25;3.23;;;2.27;;
4290;SDS011;2159;50.906;7.152;2022-11-15T14:00:58;2.70;;;2.40;;
4290;SDS011;2159;50.906;7.152;2022-11-15T14:03:26;3.63;;;2.50;;
4290;SDS011;2159;50.906;7.152;2022-11-15T14:06:06;2.57;;;2.37;;
4290;SDS011;2159;50.906;7.152;2022-11-15T14:08:37;2.40;;;2.30;;
4290;SDS011;2159;50.906;7.152;2022-11-15T14:11:06;4.40;;;2.63;;
4290;SDS011;2159;50.906;7.152;2022-11-15T14:13:34;2.33;;;1.87;;
4290;SDS011;2159;50.906;7.152;2022-11-15T14:16:15;2.00;;;1.90;;
4290;SDS011;2159;50.906;7.152;2022-11-15T14:18:44;4.40;;;2.80;;
4290;SDS011;2159;50.906;7.152;2022-11-15T14:21:13;3.60;;;3.30;;
4290;SDS011;2159;50.906;7.152;2022-11-15T14:23:41;4.93;;;2.93;;
4290;SDS011;2159;50.906;7.152;2022-11-15T14:26:11;3.93;;;2.43;;
4290;SDS011;2159;50.906;7.152;2022-11-15T14:28:52;2.10;;;2.00;;
4290;SDS011;2159;50.906;7.152;2022-11-15T14:31:20;2.00;;;1.90;;
4290;SDS011;2159;50.906;7.152;2022-11-15T14:33:47;2.50;;;2.13;;
4290;SDS011;2159;50.906;7.152;2022-11-15T14:36:17;2.13;;;1.90;;
4290;SDS011;2159;50.906;7.152;2022-11-15T14:38:45;2.13;;;2.03;;
4290;SDS011;2159;50.906;7.152;2022-11-15T14:41:17;2.17;;;2.07;;
4290;SDS011;2159;50.906;7.152;2022-11-15T14:43:45;1.90;;;1.80;;
4290;SDS011;2159;50.906;7.152;2022-11-15T14:46:13;3.30;;;2.50;;
4290;SDS011;2159;50.906;7.152;2022-11-15T14:48:40;2.00;;;1.90;;
4290;SDS011;2159;50.906;7.152;2022-11-15T14:51:11;2.70;;;2.10;;
4290;SDS011;2159;50.906;7.152;2022-11-15T14:53:42;1.97;;;1.87;;
4290;SDS011;2159;50.906;7.152;2022-11-15T14:56:10;3.40;;;1.90;;
4290;SDS011;2159;50.906;7.152;2022-11-15T14:58:38;3.20;;;2.10;;
4290;SDS011;2159;50.906;7.152;2022-11-15T15:01:09;2.67;;;1.83;;
4290;SDS011;2159;50.906;7.152;2022-11-15T15:03:38;2.10;;;2.00;;
4290;SDS011;2159;50.906;7.152;2022-11-15T15:06:05;2.10;;;1.93;;
4290;SDS011;2159;50.906;7.152;2022-11-15T15:08:43;2.10;;;2.00;;
4290;SDS011;2159;50.906;7.152;2022-11-15T15:11:13;2.27;;;1.93;;
4290;SDS011;2159;50.906;7.152;2022-11-15T15:13:41;2.40;;;2.00;;
4290;SDS011;2159;50.906;7.152;2022-11-15T15:16:09;2.23;;;2.00;;
4290;SDS011;2159;50.906;7.152;2022-11-15T15:18:37;1.90;;;1.80;;
4290;SDS011;2159;50.906;7.152;2022-11-15T15:21:04;3.23;;;2.10;;
4290;SDS011;2159;50.906;7.152;2022-11-15T15:23:40;1.97;;;1.87;;
4290;SDS011;2159;50.906;7.152;2022-11-15T15:26:09;2.20;;;1.70;;
4290;SDS011;2159;50.906;7.152;2022-11-15T15:28:36;1.90;;;1.80;;
4290;SDS011;2159;50.906;7.152;2022-11-15T15:31:06;2.00;;;1.90;;
4290;SDS011;2159;50.906;7.152;2022-11-15T15:33:33;2.47;;;2.27;;
4290;SDS011;2159;50.906;7.152;2022-11-15T15:36:00;2.17;;;2.07;;
4290;SDS011;2159;50.906;7.152;2022-11-15T15:38:28;2.53;;;2.30;;
4290;SDS011;2159;50.906;7.152;2022-11-15T15:40:56;2.53;;;2.10;;
4290;SDS011;2159;50.906;7.152;2022-11-15T15:43:27;2.67;;;2.43;;
4290;SDS011;2159;50.906;7.152;2022-11-15T15:45:54;2.00;;;1.90;;
4290;SDS011;2159;50.906;7.152;2022-11-15T15:48:22;2.70;;;2.30;;
4290;SDS011;2159;50.906;7.152;2022-11-15T15:50:49;6.50;;;2.07;;
4290;SDS011;2159;50.906;7.152;2022-11-15T15:53:17;2.10;;;1.90;;
4290;SDS011;2159;50.906;7.152;2022-11-15T15:55:44;2.23;;;2.13;;
4290;SDS011;2159;50.906;7.152;2022-11-15T15:58:12;3.00;;;2.10;;
4290;SDS011;2159;50.906;7.152;2022-11-15T16:00:41;1.90;;;1.80;;